Time;durP1;ratioP1;P1;durP2;ratioP2;P2;SDS_P1;SDS_P2;PMS_P1;PMS_P2;Temp;Humidity;BMP_temperature;BMP_pressure;BME280_temperature;BME280_humidity;BME280_pressure;Samples;Min_cycle;Max_cycle;Signal;HPM_P1;HPM_P2
2023/11/12 00:02:11;;;;;;;5.70;3.80;;;;;;;7.81;100.00;99749.31;5017010;28;20042;-73
2023/11/12 00:04:37;;;;;;;9.98;4.28;;;;;;;7.86;100.00;99747.81;5070286;28;20096;-73
2023/11/12 00:07:03;;;;;;;6.45;3.25;;;;;;;7.76;100.00;99751.72;5046074;28;20056;-73
2023/11/12 00:09:31;;;;;;;4.95;3.13;;;;;;;7.72;100.00;99744.72;5069106;28;20028;-73
2023/11/12 00:11:57;;;;;;;6.17;2.77;;;;;;;7.87;100.00;99758.94;5069236;28;20443;-74
2023/11/12 00:14:24;;;;;;;4.75;2.90;;;;;;;7.69;100.00;99718.03;5026700;28;20280;-74
2023/11/12 00:16:49;;;;;;;5.80;3.13;;;;;;;7.99;100.00;99753.34;5026689;28;20108;-73
2023/11/12 00:19:16;;;;;;;4.22;2.67;;;;;;;8.16;100.00;99761.69;5026473;28;20041;-72
2023/11/12 00:21:43;;;;;;;6.80;3.08;;;;;;;8.16;100.00;99767.72;5027438;28;20613;-74
2023/11/12 00:24:11;;;;;;;5.10;2.75;;;;;;;8.13;100.00;99757.31;5026417;28;20052;-73
2023/11/12 00:26:38;;;;;;;5.90;1.83;;;;;;;8.17;100.00;99760.88;5026402;28;20034;-73
2023/11/12 00:29:04;;;;;;;2.95;1.60;;;;;;;7.96;100.00;99718.13;5010191;28;20046;-73
2023/11/12 00:31:29;;;;;;;3.97;1.67;;;;;;;8.32;100.00;99763.09;5026674;28;20087;-72
2023/11/12 00:33:55;;;;;;;2.70;1.17;;;;;;;8.38;100.00;99773.59;5027213;28;20060;-72
2023/11/12 00:36:20;;;;;;;14.23;1.50;;;;;;;8.38;100.00;99779.59;5009856;28;20037;-78
2023/11/12 00:38:46;;;;;;;1.55;1.30;;;;;;;8.45;100.00;99782.38;5003969;28;20079;-74
2023/11/12 00:41:12;;;;;;;2.92;1.05;;;;;;;8.51;100.00;99792.91;5021360;28;20034;-73
2023/11/12 00:43:39;;;;;;;4.75;2.15;;;;;;;8.62;100.00;99806.16;5023574;28;20029;-74
2023/11/12 00:46:05;;;;;;;2.30;1.17;;;;;;;8.48;100.00;99792.81;5054963;28;20551;-74
2023/11/12 00:48:30;;;;;;;3.35;1.58;;;;;;;8.15;100.00;99737.69;5065602;28;20036;-73
2023/11/12 00:50:56;;;;;;;6.20;2.00;;;;;;;8.52;100.00;99803.28;5062296;28;20419;-74
2023/11/12 00:53:23;;;;;;;4.30;1.83;;;;;;;8.52;100.00;99830.69;5062634;28;20020;-72
2023/11/12 00:55:49;;;;;;;6.40;2.60;;;;;;;8.47;100.00;99821.94;5068418;28;20032;-74
2023/11/12 00:58:14;;;;;;;8.80;4.72;;;;;;;8.50;100.00;99835.78;5071568;28;20020;-73
2023/11/12 01:00:42;;;;;;;11.27;6.05;;;;;;;8.45;100.00;99832.16;5029226;28;20044;-76
2023/11/12 01:03:09;;;;;;;3.42;1.73;;;;;;;8.38;100.00;99843.03;5067103;28;20055;-73
2023/11/12 01:05:35;;;;;;;3.65;1.20;;;;;;;7.43;100.00;99694.84;5071825;28;20024;-73
2023/11/12 01:08:01;;;;;;;2.58;1.45;;;;;;;8.11;100.00;99812.94;5036385;28;20426;-73
2023/11/12 01:10:27;;;;;;;4.88;2.10;;;;;;;8.34;100.00;99844.63;5073004;28;20021;-73
2023/11/12 01:12:52;;;;;;;3.20;1.10;;;;;;;8.03;100.00;99793.78;5072254;28;20031;-74
2023/11/12 01:15:18;;;;;;;2.75;1.40;;;;;;;8.25;100.00;99839.16;5072001;28;20550;-73
2023/11/12 01:17:46;;;;;;;1.55;1.08;;;;;;;8.26;100.00;99853.75;5071897;28;20036;-75
2023/11/12 01:20:13;;;;;;;2.80;1.80;;;;;;;7.87;100.00;99782.94;5072576;28;20040;-72
2023/11/12 01:22:39;;;;;;;4.28;1.90;;;;;;;8.19;100.00;99846.66;5072114;28;20025;-73
2023/11/12 01:25:05;;;;;;;4.00;1.67;;;;;;;8.03;100.00;99829.78;5050182;28;20131;-73
2023/11/12 01:27:30;;;;;;;3.05;1.88;;;;;;;8.09;100.00;99854.00;5071758;28;20028;-73
2023/11/12 01:29:56;;;;;;;3.33;1.73;;;;;;;7.96;100.00;99833.81;5072541;28;20029;-73
2023/11/12 01:32:21;;;;;;;12.85;2.35;;;;;;;8.04;100.00;99858.13;5071478;28;20020;-73
2023/11/12 01:34:47;;;;;;;6.18;2.00;;;;;;;8.05;100.00;99846.13;5071460;28;20048;-73
2023/11/12 01:37:32;;;;;;;5.93;2.13;;;;;;;8.10;100.00;99860.06;5029130;28;20099;-73
2023/11/12 01:39:58;;;;;;;8.68;4.45;;;;;;;8.15;100.00;99865.34;5029848;28;20443;-74
2023/11/12 01:42:25;;;;;;;3.72;1.58;;;;;;;8.30;100.00;99865.91;5029011;28;20046;-74
2023/11/12 01:44:50;;;;;;;3.22;1.50;;;;;;;7.48;100.00;99708.72;5029525;28;20091;-73
2023/11/12 01:47:17;;;;;;;2.60;1.27;;;;;;;8.50;100.00;99874.38;5029107;28;20037;-74
2023/11/12 01:49:42;;;;;;;4.05;1.60;;;;;;;8.49;100.00;99853.75;5029091;28;20037;-73
2023/11/12 01:52:11;;;;;;;6.35;2.10;;;;;;;8.64;100.00;99879.16;5028927;28;20160;-72
2023/11/12 01:54:38;;;;;;;6.65;2.28;;;;;;;8.68;100.00;99878.41;5029731;28;20489;-73
2023/11/12 01:57:04;;;;;;;2.35;1.50;;;;;;;8.57;100.00;99883.19;5028959;28;20095;-74
2023/11/12 01:59:34;;;;;;;3.40;2.00;;;;;;;8.42;100.00;99860.31;5028958;28;20129;-73
2023/11/12 02:02:00;;;;;;;5.95;2.33;;;;;;;8.46;100.00;99876.75;5028810;28;20040;-73
2023/11/12 02:04:27;;;;;;;4.93;1.70;;;;;;;8.40;100.00;99880.84;5028465;28;20037;-73
2023/11/12 02:06:52;;;;;;;2.95;1.63;;;;;;;8.36;100.00;99881.56;5028643;28;20065;-73
2023/11/12 02:09:21;;;;;;;3.33;1.90;;;;;;;8.17;100.00;99866.28;5063271;28;20478;-73
2023/11/12 02:11:46;;;;;;;3.25;1.90;;;;;;;8.25;100.00;99894.03;5071259;28;20067;-74
2023/11/12 02:14:12;;;;;;;6.63;2.25;;;;;;;8.25;100.00;99891.47;5071224;28;20126;-74
2023/11/12 02:16:37;;;;;;;4.07;2.03;;;;;;;8.24;100.00;99889.69;5061866;28;20029;-74
2023/11/12 02:19:03;;;;;;;4.10;1.95;;;;;;;8.25;100.00;99886.31;5071071;28;20024;-73
2023/11/12 02:21:32;;;;;;;4.80;1.98;;;;;;;8.25;100.00;99885.44;5070980;28;20044;-75
2023/11/12 02:23:58;;;;;;;4.47;2.60;;;;;;;8.33;100.00;99888.28;5071512;28;20500;-74
2023/11/12 02:26:24;;;;;;;2.70;1.70;;;;;;;7.85;100.00;99815.44;5070679;28;20040;-72
2023/11/12 02:28:49;;;;;;;3.67;2.03;;;;;;;7.98;100.00;99831.31;5070621;28;20032;-73
2023/11/12 02:31:15;;;;;;;3.38;1.90;;;;;;;8.39;100.00;99902.25;5070510;28;20592;-75
2023/11/12 02:33:42;;;;;;;4.53;2.40;;;;;;;8.24;100.00;99881.97;5071089;28;20056;-74
2023/11/12 02:36:08;;;;;;;3.22;1.83;;;;;;;7.25;100.00;99757.53;5070762;28;20029;-74
2023/11/12 02:38:33;;;;;;;3.35;2.10;;;;;;;7.81;100.00;99897.50;5070505;28;20417;-74
2023/11/12 02:41:01;;;;;;;4.93;2.28;;;;;;;7.50;100.00;99881.75;5070443;28;20480;-74
2023/11/12 02:43:28;;;;;;;5.43;2.47;;;;;;;7.61;100.00;99906.19;5066886;28;20388;-74
2023/11/12 02:45:55;;;;;;;6.38;2.42;;;;;;;7.66;100.00;99908.91;5048542;28;20045;-72
2023/11/12 02:48:20;;;;;;;5.68;2.83;;;;;;;7.62;100.00;99909.59;5070336;28;20028;-75
2023/11/12 02:50:47;;;;;;;4.90;2.17;;;;;;;7.68;100.00;99909.00;5070333;28;20047;-73
2023/11/12 02:53:12;;;;;;;5.60;3.15;;;;;;;7.44;100.00;99856.69;5070501;28;20028;-72
2023/11/12 02:55:38;;;;;;;4.85;2.33;;;;;;;7.84;100.00;99913.91;5069972;28;20036;-73
2023/11/12 02:58:03;;;;;;;5.20;2.28;;;;;;;7.88;100.00;99902.06;5069755;28;20036;-73
2023/11/12 03:00:30;;;;;;;3.47;2.25;;;;;;;7.98;100.00;99906.72;5069972;28;20725;-74
2023/11/12 03:02:58;;;;;;;3.47;2.10;;;;;;;8.11;100.00;99910.63;5034304;28;20052;-73
2023/11/12 03:05:24;;;;;;;3.05;1.90;;;;;;;8.22;100.00;99919.66;5069967;28;20422;-74
2023/11/12 03:07:50;;;;;;;3.28;1.70;;;;;;;8.21;100.00;99912.75;5051918;28;20064;-74
2023/11/12 03:10:17;;;;;;;6.78;2.00;;;;;;;8.24;100.00;99905.13;5069898;28;20036;-73
2023/11/12 03:12:43;;;;;;;3.88;1.90;;;;;;;8.42;100.00;99917.81;5069371;28;20111;-73
2023/11/12 03:15:11;;;;;;;4.40;2.15;;;;;;;8.20;100.00;99893.00;5070522;28;20120;-74
2023/11/12 03:17:36;;;;;;;4.13;1.88;;;;;;;7.89;100.00;99837.84;5069878;28;20043;-73
2023/11/12 03:20:04;;;;;;;4.13;2.03;;;;;;;8.31;100.00;99921.69;5069188;28;20608;-74
2023/11/12 03:22:33;;;;;;;4.68;2.38;;;;;;;8.33;100.00;99934.59;5069611;28;20039;-74
2023/11/12 03:24:59;;;;;;;6.10;2.78;;;;;;;7.87;100.00;99848.91;5069659;28;20028;-73
2023/11/12 03:27:25;;;;;;;6.82;3.70;;;;;;;8.38;100.00;99941.66;5069271;28;20039;-73
2023/11/12 03:29:51;;;;;;;7.53;4.47;;;;;;;8.38;100.00;99933.94;5070139;28;20501;-73
2023/11/12 03:32:16;;;;;;;10.18;5.22;;;;;;;8.40;100.00;99936.56;5069640;28;20033;-72
2023/11/12 03:34:42;;;;;;;4.85;2.30;;;;;;;8.21;100.00;99911.84;5069467;28;20055;-73
2023/11/12 03:37:08;;;;;;;5.18;2.42;;;;;;;8.13;100.00;99944.13;5061315;28;20150;-75
2023/11/12 03:39:34;;;;;;;4.75;2.20;;;;;;;7.87;100.00;99932.00;5069746;28;20107;-73
2023/11/12 03:41:59;;;;;;;3.67;2.33;;;;;;;7.69;100.00;99927.03;5069408;28;20044;-73
2023/11/12 03:44:25;;;;;;;7.68;3.10;;;;;;;7.58;100.00;99918.03;5070187;28;20032;-73
2023/11/12 03:46:50;;;;;;;3.88;2.22;;;;;;;6.97;100.00;99851.38;5069284;28;20105;-74
2023/11/12 03:49:18;;;;;;;4.85;2.17;;;;;;;7.20;100.00;99913.09;5069473;28;20033;-73
2023/11/12 03:51:43;;;;;;;5.43;2.40;;;;;;;7.25;100.00;99937.25;5069635;28;20086;-73
2023/11/12 03:54:10;;;;;;;5.13;2.38;;;;;;;7.06;100.00;99888.53;5069302;28;20036;-73
2023/11/12 03:56:36;;;;;;;4.55;2.45;;;;;;;7.41;100.00;99943.00;5069177;28;20029;-74
2023/11/12 03:59:01;;;;;;;4.00;2.20;;;;;;;7.21;100.00;99913.94;5069343;28;20531;-75
2023/11/12 04:01:26;;;;;;;7.38;2.50;;;;;;;7.38;100.00;99951.47;5068764;28;20418;-74
2023/11/12 04:03:52;;;;;;;4.93;2.65;;;;;;;7.33;100.00;99946.94;5069868;28;20425;-75
2023/11/12 04:06:18;;;;;;;3.60;2.17;;;;;;;6.76;100.00;99850.50;5069111;28;20029;-75
2023/11/12 04:08:43;;;;;;;3.67;2.20;;;;;;;7.38;100.00;99959.16;5068867;28;20041;-77
2023/11/12 04:11:09;;;;;;;4.18;2.42;;;;;;;7.48;100.00;99960.44;5068958;28;20021;-79
2023/11/12 04:13:34;;;;;;;3.80;1.85;;;;;;;7.40;100.00;99962.69;5069152;28;20419;-74
2023/11/12 04:16:00;;;;;;;5.70;2.13;;;;;;;7.35;100.00;99976.13;5067363;28;20063;-75
2023/11/12 04:18:26;;;;;;;4.90;2.28;;;;;;;7.39;100.00;99972.88;5069351;28;20453;-74
2023/11/12 04:20:51;;;;;;;6.05;2.40;;;;;;;7.52;100.00;99972.56;5069180;28;20123;-80
2023/11/12 04:23:17;;;;;;;4.22;2.30;;;;;;;7.53;100.00;99971.78;5069068;28;20067;-75
2023/11/12 04:25:44;;;;;;;5.30;2.72;;;;;;;7.63;100.00;99993.56;5068961;28;20554;-73
2023/11/12 04:28:09;;;;;;;5.75;2.67;;;;;;;7.72;100.00;99993.94;5069748;28;20029;-73
2023/11/12 04:30:35;;;;;;;4.65;2.10;;;;;;;7.72;100.00;99991.38;5071390;28;20033;-72
2023/11/12 04:33:00;;;;;;;4.20;1.92;;;;;;;7.73;100.00;99997.41;5072758;28;20052;-74
2023/11/12 04:35:26;;;;;;;3.85;1.77;;;;;;;7.78;100.00;100001.91;5073795;28;20596;-72
2023/11/12 04:37:54;;;;;;;2.55;1.52;;;;;;;7.81;100.00;100008.00;5073713;28;20391;-72
2023/11/12 04:40:20;;;;;;;4.80;2.00;;;;;;;7.91;100.00;100017.81;5072435;28;20024;-72
2023/11/12 04:42:48;;;;;;;2.80;1.55;;;;;;;7.51;100.00;99991.38;5072704;28;20414;-77
2023/11/12 04:45:14;;;;;;;3.67;1.70;;;;;;;7.83;100.00;100026.94;5072712;28;20070;-74
2023/11/12 04:47:40;;;;;;;3.03;1.40;;;;;;;7.20;100.00;99954.16;5072447;28;20032;-76
2023/11/12 04:50:06;;;;;;;3.72;1.77;;;;;;;6.69;100.00;99884.38;5072775;28;20024;-78
2023/11/12 04:52:31;;;;;;;4.63;1.85;;;;;;;7.42;100.00;100040.66;5072512;28;20040;-73
2023/11/12 04:54:57;;;;;;;4.38;2.05;;;;;;;7.36;100.00;100057.50;5072947;28;20059;-73
2023/11/12 04:57:23;;;;;;;3.20;1.45;;;;;;;7.17;100.00;100061.84;5072351;28;20067;-73
2023/11/12 04:59:49;;;;;;;3.35;1.77;;;;;;;7.22;100.00;100065.47;5073113;28;20056;-72
2023/11/12 05:02:14;;;;;;;4.03;1.77;;;;;;;7.29;100.00;100056.38;5072278;28;20028;-73
2023/11/12 05:04:42;;;;;;;2.45;1.52;;;;;;;7.37;100.00;100055.00;5070477;28;20032;-73
2023/11/12 05:07:08;;;;;;;3.53;1.55;;;;;;;7.37;100.00;100049.00;5072670;28;20036;-73
2023/11/12 05:09:33;;;;;;;4.22;1.58;;;;;;;7.31;100.00;100018.78;5072193;28;20397;-72
2023/11/12 05:11:59;;;;;;;3.45;1.77;;;;;;;7.61;100.00;100068.03;5072297;28;20405;-74
2023/11/12 05:14:24;;;;;;;8.50;2.28;;;;;;;7.50;100.00;100043.56;5072085;28;20465;-73
2023/11/12 05:16:50;;;;;;;7.53;2.72;;;;;;;7.77;100.00;100086.66;5072170;28;20032;-73
2023/11/12 05:19:15;;;;;;;7.05;3.40;;;;;;;7.65;100.00;100069.03;5072245;28;20028;-72
2023/11/12 05:21:44;;;;;;;6.80;4.05;;;;;;;7.78;100.00;100083.25;5072168;28;20051;-73
2023/11/12 05:24:09;;;;;;;4.18;2.28;;;;;;;7.81;100.00;100097.94;5072282;28;20036;-71
2023/11/12 05:26:35;;;;;;;6.82;2.67;;;;;;;7.74;100.00;100109.66;5072774;28;20110;-73
2023/11/12 05:29:01;;;;;;;6.25;3.42;;;;;;;7.70;100.00;100100.94;5071699;28;20086;-73
2023/11/12 05:31:26;;;;;;;8.48;3.35;;;;;;;7.74;100.00;100104.50;5071935;28;20051;-71
2023/11/12 05:33:51;;;;;;;6.68;3.58;;;;;;;7.79;100.00;100115.88;5027695;28;20563;-73
2023/11/12 05:36:17;;;;;;;7.95;3.67;;;;;;;7.80;100.00;100115.06;5070400;28;20401;-73
2023/11/12 05:38:43;;;;;;;7.00;3.25;;;;;;;7.81;100.00;100124.50;5069906;28;20032;-74
2023/11/12 05:41:08;;;;;;;5.82;2.40;;;;;;;7.80;100.00;100130.47;5053032;28;20040;-74
2023/11/12 05:43:33;;;;;;;6.70;2.53;;;;;;;7.86;100.00;100143.59;5067954;28;20029;-73
2023/11/12 05:45:59;;;;;;;8.35;3.10;;;;;;;7.82;100.00;100143.38;5054525;28;20102;-74
2023/11/12 05:48:24;;;;;;;7.28;2.53;;;;;;;7.73;100.00;100144.72;5071243;28;20433;-73
2023/11/12 05:50:50;;;;;;;7.60;2.58;;;;;;;7.73;100.00;100137.03;5071497;28;20036;-72
2023/11/12 05:53:16;;;;;;;6.05;2.33;;;;;;;7.58;100.00;100144.94;5071092;28;20063;-73
2023/11/12 05:55:41;;;;;;;4.07;2.17;;;;;;;7.54;100.00;100150.78;5071721;28;20028;-73
2023/11/12 05:58:07;;;;;;;7.43;2.45;;;;;;;7.59;100.00;100148.41;5072113;28;20028;-75
2023/11/12 06:00:32;;;;;;;6.35;2.30;;;;;;;7.61;100.00;100142.53;5046666;28;20462;-73
2023/11/12 06:02:58;;;;;;;6.35;2.38;;;;;;;7.81;100.00;100154.47;5066695;28;20024;-73
2023/11/12 06:05:23;;;;;;;5.03;2.67;;;;;;;7.85;100.00;100162.38;5071202;28;20029;-74
2023/11/12 06:07:49;;;;;;;7.93;2.47;;;;;;;7.85;100.00;100159.81;5070535;28;20045;-74
2023/11/12 06:10:14;;;;;;;5.38;2.72;;;;;;;7.49;100.00;100110.28;5072214;28;20055;-73
2023/11/12 06:12:40;;;;;;;5.03;2.25;;;;;;;7.86;100.00;100169.28;5071108;28;20483;-73
2023/11/12 06:15:06;;;;;;;8.88;4.13;;;;;;;7.96;100.00;100183.38;5071315;28;20066;-71
2023/11/12 06:17:31;;;;;;;17.27;13.00;;;;;;;7.88;100.00;100162.50;5071122;28;20540;-71
2023/11/12 06:19:57;;;;;;;8.45;4.55;;;;;;;7.61;100.00;100128.78;5028074;28;20103;-75
2023/11/12 06:22:22;;;;;;;7.45;4.00;;;;;;;7.86;100.00;100184.72;5068906;28;20450;-73
2023/11/12 06:24:47;;;;;;;6.30;3.10;;;;;;;7.82;100.00;100192.22;5070810;28;20042;-73
2023/11/12 06:27:13;;;;;;;4.53;2.38;;;;;;;7.69;100.00;100201.06;5069710;28;20028;-73
2023/11/12 06:29:39;;;;;;;3.67;2.13;;;;;;;7.35;100.00;100191.84;5071099;28;20025;-69
2023/11/12 06:32:06;;;;;;;5.53;2.20;;;;;;;7.23;100.00;100185.34;5070189;28;20040;-70
2023/11/12 06:34:32;;;;;;;4.75;2.40;;;;;;;7.36;100.00;100180.78;5069326;28;20099;-72
2023/11/12 06:36:58;;;;;;;11.88;2.60;;;;;;;7.66;100.00;100183.81;5070117;28;20036;-74
2023/11/12 06:39:24;;;;;;;66.53;59.53;;;;;;;7.91;100.00;100219.19;5070459;28;20060;-74
2023/11/12 06:41:50;;;;;;;27.73;24.40;;;;;;;8.00;100.00;100197.25;5031496;28;20083;-74
2023/11/12 06:44:15;;;;;;;6.60;3.58;;;;;;;8.21;100.00;100203.31;5070091;28;20025;-72
2023/11/12 06:46:47;;;;;;;20.35;7.43;;;;;;;8.34;100.00;100199.56;5070081;28;20080;-73
2023/11/12 06:49:31;;;;;;;13.50;5.35;;;;;;;8.32;100.00;100179.75;5007191;28;20042;-74
2023/11/12 06:51:57;;;;;;;9.93;4.85;;;;;;;8.29;100.00;100164.16;4991661;28;20037;-71
2023/11/12 06:54:23;;;;;;;5.43;3.00;;;;;;;8.20;100.00;100120.94;5007098;28;20068;-74
2023/11/12 06:56:49;;;;;;;8.07;2.72;;;;;;;8.55;100.00;100144.69;5007495;28;20080;-71
2023/11/12 06:59:14;;;;;;;7.20;3.05;;;;;;;8.96;100.00;100176.34;5007804;28;20042;-70
2023/11/12 07:01:40;;;;;;;5.70;3.00;;;;;;;8.71;100.00;100105.88;5007604;28;20067;-72
2023/11/12 07:04:06;;;;;;;6.45;2.85;;;;;;;9.23;100.00;100155.91;5012713;28;20801;-74
2023/11/12 07:06:32;;;;;;;5.30;2.30;;;;;;;9.33;100.00;100159.69;5008119;28;20034;-76
2023/11/12 07:08:58;;;;;;;7.82;4.30;;;;;;;9.69;100.00;100189.31;5007311;28;20044;-70
2023/11/12 07:11:23;;;;;;;8.30;3.88;;;;;;;9.54;100.00;100171.59;5006835;28;20113;-73
2023/11/12 07:13:49;;;;;;;7.03;3.47;;;;;;;8.81;100.00;100042.75;5007275;28;20123;-73
2023/11/12 07:16:16;;;;;;;6.30;3.50;;;;;;;9.58;100.00;100164.84;5007732;28;20045;-71
2023/11/12 07:18:42;;;;;;;7.10;4.28;;;;;;;9.83;100.00;100211.31;4986420;28;20741;-71
2023/11/12 07:21:07;;;;;;;5.80;3.58;;;;;;;9.44;100.00;100130.88;5007226;28;20030;-74
2023/11/12 07:23:33;;;;;;;5.93;3.03;;;;;;;9.52;100.00;100127.75;5007239;28;20034;-71
2023/11/12 07:25:58;;;;;;;7.18;2.78;;;;;;;9.98;100.00;100216.16;5007140;28;20058;-73
2023/11/12 07:28:23;;;;;;;5.20;2.88;;;;;;;10.02;100.00;100215.41;5007043;28;20034;-71
2023/11/12 07:30:49;;;;;;;6.43;3.00;;;;;;;10.15;100.00;100187.47;5007752;28;20026;-71
2023/11/12 07:33:14;;;;;;;7.13;3.25;;;;;;;10.41;100.00;100185.78;5006628;28;20056;-70
2023/11/12 07:35:40;;;;;;;6.55;3.13;;;;;;;10.50;100.00;100206.75;4990670;28;20053;-74
2023/11/12 07:38:06;;;;;;;6.88;3.00;;;;;;;9.86;100.00;100113.44;5007196;28;20045;-76
2023/11/12 07:40:32;;;;;;;4.85;2.35;;;;;;;10.39;100.00;100209.78;5007083;28;20497;-72
2023/11/12 07:42:57;;;;;;;5.80;2.80;;;;;;;10.56;100.00;100218.09;5007151;28;20038;-72
2023/11/12 07:45:23;;;;;;;4.63;2.47;;;;;;;10.19;100.00;100143.78;5007023;28;20033;-71
2023/11/12 07:47:49;;;;;;;7.85;2.50;;;;;;;10.81;100.00;100233.53;5006601;28;20121;-72
2023/11/12 07:50:14;;;;;;;4.15;2.30;;;;;;;10.72;100.00;100201.41;5006506;28;20044;-69
2023/11/12 07:53:00;;;;;;;3.92;2.20;;;;;;;11.12;100.00;100243.97;5007612;28;20026;-72
2023/11/12 07:55:25;;;;;;;6.15;2.20;;;;;;;11.20;100.00;100234.75;4967404;28;20035;-70
2023/11/12 07:57:51;;;;;;;4.32;1.70;;;;;;;11.03;100.00;100185.16;4967617;28;20043;-70
2023/11/12 08:00:19;;;;;;;4.70;1.85;;;;;;;11.37;100.00;100232.69;4951161;28;20140;-72
2023/11/12 08:02:47;;;;;;;4.35;1.90;;;;;;;11.58;100.00;100249.66;4967794;28;20031;-75
2023/11/12 08:05:12;;;;;;;3.90;1.35;;;;;;;11.77;100.00;100251.06;4954926;28;20077;-70
2023/11/12 08:07:38;;;;;;;4.18;1.40;;;;;;;11.69;100.00;100225.00;4973898;28;20082;-70
2023/11/12 08:10:05;;;;;;;2.58;1.35;;;;;;;11.77;100.00;100262.28;4970703;28;20046;-70
2023/11/12 08:12:31;;;;;;;4.30;1.63;;;;;;;11.65;100.00;100239.53;4974090;28;20531;-70
2023/11/12 08:14:57;;;;;;;2.30;1.17;;;;;;;11.13;100.00;100181.16;4973646;28;20055;-71
2023/11/12 08:17:23;;;;;;;7.80;1.70;;;;;;;11.38;100.00;100221.50;4974044;28;20070;-69
2023/11/12 08:19:48;;;;;;;3.38;1.30;;;;;;;11.54;100.00;100252.97;4973620;28;20054;-70
2023/11/12 08:22:13;;;;;;;3.97;1.60;;;;;;;11.47;100.00;100242.44;4973707;28;20074;-72
2023/11/12 08:24:39;;;;;;;5.93;2.13;;;;;;;11.55;100.00;100239.22;4974097;28;20409;-73
2023/11/12 08:27:04;;;;;;;5.57;1.85;;;;;;;11.17;100.00;100168.34;5004346;28;20144;-73
2023/11/12 08:29:31;;;;;;;5.50;3.28;;;;;;;11.58;100.00;100197.97;5012554;28;20120;-70
2023/11/12 08:31:57;;;;;;;4.25;1.98;;;;;;;12.05;100.00;100236.34;5012925;28;20048;-74
2023/11/12 08:34:23;;;;;;;6.88;3.13;;;;;;;12.22;100.00;100223.84;5012575;28;20523;-71
2023/11/12 08:36:55;;;;;;;3.33;1.35;;;;;;;12.22;100.00;100196.25;5001657;28;20036;-70
2023/11/12 08:39:20;;;;;;;1.58;1.15;;;;;;;12.59;100.00;100222.22;5074175;28;20032;-70
2023/11/12 08:41:46;;;;;;;3.50;1.42;;;;;;;12.78;99.71;100228.72;5074931;28;20032;-72
2023/11/12 08:44:13;;;;;;;2.17;1.20;;;;;;;12.79;99.38;100202.81;5075638;28;20422;-74
2023/11/12 08:46:58;;;;;;;3.47;1.75;;;;;;;12.75;99.11;100180.28;5012819;28;20077;-71
2023/11/12 08:49:23;;;;;;;2.47;1.20;;;;;;;13.02;100.00;100212.88;5012726;28;20602;-71
2023/11/12 08:51:48;;;;;;;2.47;1.20;;;;;;;12.96;100.00;100199.78;5012860;28;20046;-72
2023/11/12 08:54:14;;;;;;;3.72;1.42;;;;;;;12.74;100.00;100154.38;5012685;28;20203;-75
2023/11/12 08:56:39;;;;;;;2.33;1.30;;;;;;;13.30;100.00;100228.16;5012755;28;20042;-72
2023/11/12 08:59:07;;;;;;;2.72;1.48;;;;;;;13.48;100.00;100213.00;5013092;28;20044;-74
2023/11/12 09:01:36;;;;;;;2.33;1.00;;;;;;;13.49;99.29;100199.22;5012834;28;20038;-71
2023/11/12 09:04:02;;;;;;;4.18;1.38;;;;;;;13.52;100.00;100216.53;5012675;28;20033;-72
2023/11/12 09:06:28;;;;;;;2.05;1.27;;;;;;;13.57;99.46;100222.69;5013359;28;20032;-70
2023/11/12 09:08:55;;;;;;;2.75;1.35;;;;;;;13.15;99.51;100122.44;5012507;28;20037;-71
2023/11/12 09:11:21;;;;;;;1.90;0.93;;;;;;;13.62;100.00;100209.84;4979758;28;20041;-72
2023/11/12 09:13:47;;;;;;;2.92;1.30;;;;;;;13.66;100.00;100190.91;5012466;28;20046;-71
2023/11/12 09:16:13;;;;;;;2.33;1.30;;;;;;;13.93;96.60;100208.72;5011657;28;20430;-71
2023/11/12 09:18:40;;;;;;;1.90;1.20;;;;;;;14.03;94.78;100199.38;5058124;28;20116;-71
2023/11/12 09:21:06;;;;;;;1.88;1.17;;;;;;;14.06;93.05;100179.53;5071524;28;20037;-71
2023/11/12 09:23:32;;;;;;;4.15;1.40;;;;;;;14.22;95.68;100203.22;5014720;28;20040;-72
2023/11/12 09:25:57;;;;;;;4.85;2.05;;;;;;;14.29;98.16;100202.44;5071136;28;20028;-73
2023/11/12 09:28:22;;;;;;;5.30;1.65;;;;;;;14.02;96.47;100136.22;5071455;28;20901;-71
2023/11/12 09:30:48;;;;;;;3.50;1.60;;;;;;;14.49;95.12;100204.50;5072072;28;20021;-71
2023/11/12 09:33:14;;;;;;;3.58;1.30;;;;;;;14.61;95.51;100202.13;5071190;28;20048;-70
2023/11/12 09:35:40;;;;;;;3.03;1.10;;;;;;;14.67;91.90;100203.97;5071345;28;20024;-71
2023/11/12 09:38:05;;;;;;;2.17;1.10;;;;;;;14.33;90.31;100178.28;5052698;28;20056;-73
2023/11/12 09:40:31;;;;;;;2.35;1.23;;;;;;;14.59;93.69;100164.84;5027660;28;20411;-72
2023/11/12 09:42:58;;;;;;;2.85;1.02;;;;;;;14.74;91.34;100152.97;5071574;28;20031;-73
2023/11/12 09:45:27;;;;;;;2.92;1.10;;;;;;;14.99;90.11;100175.88;5071412;28;20028;-71
2023/11/12 09:48:35;;;;;;;2.30;1.02;;;;;;;14.49;89.36;100085.03;5028389;28;20037;-74
2023/11/12 09:51:08;;;;;;;1.88;0.98;;;;;;;14.86;87.06;100160.94;5034746;28;20041;-72
2023/11/12 09:53:41;;;;;;;2.10;0.90;;;;;;;15.11;87.64;100192.50;5035279;28;20068;-71
2023/11/12 09:56:11;;;;;;;1.60;0.90;;;;;;;15.15;86.14;100176.97;5038190;28;20083;-77
2023/11/12 09:58:41;;;;;;;2.28;0.93;;;;;;;15.14;86.37;100157.00;5029844;28;20503;-71
2023/11/12 10:01:08;;;;;;;2.05;1.00;;;;;;;15.31;84.57;100188.41;5037595;28;20035;-72
2023/11/12 10:03:34;;;;;;;1.58;1.00;;;;;;;15.29;86.75;100187.53;5039284;28;20049;-72
2023/11/12 10:06:02;;;;;;;2.13;1.08;;;;;;;15.43;83.77;100184.25;5040047;28;20546;-75
2023/11/12 10:08:29;;;;;;;1.75;0.93;;;;;;;15.40;85.26;100153.84;5030631;28;20136;-71
2023/11/12 10:11:13;;;;;;;6.65;1.30;;;;;;;15.77;82.65;100171.63;5041659;28;20114;-71
2023/11/12 10:13:39;;;;;;;1.60;0.85;;;;;;;15.67;81.81;100140.28;5033687;28;20212;-72
2023/11/12 10:16:32;;;;;;;4.03;0.90;;;;;;;15.80;79.85;100137.81;4995810;28;20476;-70
2023/11/12 10:19:12;;;;;;;5.85;1.33;;;;;;;15.67;79.70;100106.44;4975657;28;20043;-70
2023/11/12 10:21:58;;;;;;;3.30;1.33;;;;;;;15.97;82.33;100138.88;4984435;28;20512;-71
2023/11/12 10:24:27;;;;;;;4.43;1.10;;;;;;;16.06;81.87;100138.09;4985076;28;20085;-74
2023/11/12 10:26:57;;;;;;;3.75;1.20;;;;;;;15.76;81.52;100078.78;4990042;28;20038;-71
2023/11/12 10:29:23;;;;;;;3.15;1.30;;;;;;;16.13;79.56;100152.06;4989947;28;20052;-73
2023/11/12 10:31:49;;;;;;;4.20;1.17;;;;;;;16.02;81.93;100120.69;4995001;28;20125;-73
2023/11/12 10:34:19;;;;;;;3.35;0.98;;;;;;;16.17;78.63;100135.59;4990054;28;20559;-71
2023/11/12 10:37:16;;;;;;;3.40;1.63;;;;;;;16.25;79.72;100146.97;4992293;28;20053;-70
2023/11/12 10:39:43;;;;;;;2.88;1.27;;;;;;;16.27;78.22;100134.78;4987211;28;20046;-71
2023/11/12 10:42:22;;;;;;;2.95;1.20;;;;;;;16.43;78.05;100140.16;4992138;28;20042;-72
2023/11/12 10:45:07;;;;;;;6.10;1.77;;;;;;;16.41;79.03;100134.94;4954588;28;20054;-73
2023/11/12 10:47:33;;;;;;;5.90;1.50;;;;;;;16.36;79.30;100122.72;4982539;28;20042;-69
2023/11/12 10:49:59;;;;;;;2.75;1.13;;;;;;;16.55;79.64;100111.56;5017947;28;20033;-71
2023/11/12 10:52:26;;;;;;;3.05;1.20;;;;;;;16.76;80.21;100118.66;5027702;28;20120;-70
2023/11/12 10:54:57;;;;;;;3.88;1.15;;;;;;;16.45;75.21;100047.25;5027983;28;20035;-72
2023/11/12 10:57:23;;;;;;;2.63;1.15;;;;;;;16.66;77.20;100077.78;5023598;28;20132;-72
2023/11/12 10:59:49;;;;;;;3.15;1.33;;;;;;;16.98;75.13;100122.28;5019988;28;20507;-73
2023/11/12 11:02:20;;;;;;;1.92;1.00;;;;;;;17.06;74.52;100087.53;5024296;28;20029;-71
2023/11/12 11:04:46;;;;;;;2.40;1.20;;;;;;;17.35;71.07;100100.69;5020682;28;20034;-70
2023/11/12 11:07:16;;;;;;;3.55;1.20;;;;;;;17.35;65.71;100094.63;5026683;28;20040;-71
2023/11/12 11:09:42;;;;;;;;;;;;;;;17.49;66.27;100095.50;5027170;28;20124;-71
2023/11/12 11:12:10;;;;;;;4.20;1.75;;;;;;;16.77;64.46;99970.94;5031164;28;19913;-69
2023/11/12 11:14:35;;;;;;;3.53;1.20;;;;;;;17.39;60.69;100071.13;5026709;28;20061;-70
2023/11/12 11:17:05;;;;;;;8.05;1.33;;;;;;;17.51;58.94;100082.47;5025836;28;20068;-71
2023/11/12 11:19:47;;;;;;;5.97;1.60;;;;;;;17.23;58.33;100017.19;5014482;28;20508;-70
2023/11/12 11:22:25;;;;;;;3.35;1.10;;;;;;;17.65;59.72;100074.69;5036188;28;20033;-72
2023/11/12 11:24:53;;;;;;;2.75;1.13;;;;;;;17.73;58.29;100078.16;5064909;28;20032;-69
2023/11/12 11:27:21;;;;;;;2.85;1.20;;;;;;;17.32;59.43;100005.88;5068212;28;20503;-71